sensor_id;sensor_type;location;lat;lon;timestamp;temperature;humidity
25923;DHT22;13725;51.170;4.442;2023-04-03T00:01:14;3.50;99.90
25923;DHT22;13725;51.170;4.442;2023-04-03T00:03:39;3.60;99.90
25923;DHT22;13725;51.170;4.442;2023-04-03T00:06:07;3.60;99.90
25923;DHT22;13725;51.170;4.442;2023-04-03T00:08:34;3.50;99.90
25923;DHT22;13725;51.170;4.442;2023-04-03T00:11:01;3.50;99.90
25923;DHT22;13725;51.170;4.442;2023-04-03T00:13:27;3.50;99.90
25923;DHT22;13725;51.170;4.442;2023-04-03T00:15:53;3.50;99.90
25923;DHT22;13725;51.170;4.442;2023-04-03T00:18:20;3.50;99.90
25923;DHT22;13725;51.170;4.442;2023-04-03T00:20:46;3.50;99.90
25923;DHT22;13725;51.170;4.442;2023-04-03T00:23:12;3.50;99.90
25923;DHT22;13725;51.170;4.442;2023-04-03T00:25:38;3.50;99.90
25923;DHT22;13725;51.170;4.442;2023-04-03T00:28:04;3.50;99.90
25923;DHT22;13725;51.170;4.442;2023-04-03T00:30:30;3.40;99.90
25923;DHT22;13725;51.170;4.442;2023-04-03T00:32:56;3.40;99.90
25923;DHT22;13725;51.170;4.442;2023-04-03T00:35:23;3.40;99.90
25923;DHT22;13725;51.170;4.442;2023-04-03T00:37:52;3.40;99.90
25923;DHT22;13725;51.170;4.442;2023-04-03T00:40:20;3.40;99.90
25923;DHT22;13725;51.170;4.442;2023-04-03T00:42:47;3.30;99.90
25923;DHT22;13725;51.170;4.442;2023-04-03T00:45:30;3.30;99.90
25923;DHT22;13725;51.170;4.442;2023-04-03T00:47:56;3.30;99.90
25923;DHT22;13725;51.170;4.442;2023-04-03T00:50:26;3.20;99.90
25923;DHT22;13725;51.170;4.442;2023-04-03T00:52:52;3.20;99.90
25923;DHT22;13725;51.170;4.442;2023-04-03T00:55:19;3.20;99.90
25923;DHT22;13725;51.170;4.442;2023-04-03T00:57:46;3.20;99.90
25923;DHT22;13725;51.170;4.442;2023-04-03T01:00:15;3.10;99.90
25923;DHT22;13725;51.170;4.442;2023-04-03T01:02:42;3.10;99.90
25923;DHT22;13725;51.170;4.442;2023-04-03T01:05:10;3.10;99.90
25923;DHT22;13725;51.170;4.442;2023-04-03T01:07:36;3.10;99.90
25923;DHT22;13725;51.170;4.442;2023-04-03T01:10:06;3.10;99.90
25923;DHT22;13725;51.170;4.442;2023-04-03T01:12:37;3.10;99.90
25923;DHT22;13725;51.170;4.442;2023-04-03T01:15:16;3.00;99.90
25923;DHT22;13725;51.170;4.442;2023-04-03T01:17:46;3.10;99.90
25923;DHT22;13725;51.170;4.442;2023-04-03T01:23:16;3.00;99.90
25923;DHT22;13725;51.170;4.442;2023-04-03T01:28:15;3.00;99.90
25923;DHT22;13725;51.170;4.442;2023-04-03T01:33:32;2.90;99.90
25923;DHT22;13725;51.170;4.442;2023-04-03T01:35:57;2.90;99.90
25923;DHT22;13725;51.170;4.442;2023-04-03T01:38:23;2.90;99.90
25923;DHT22;13725;51.170;4.442;2023-04-03T01:40:49;2.90;99.90
25923;DHT22;13725;51.170;4.442;2023-04-03T01:43:15;2.90;99.90
25923;DHT22;13725;51.170;4.442;2023-04-03T01:45:41;2.90;99.90
25923;DHT22;13725;51.170;4.442;2023-04-03T01:48:06;2.90;99.90
25923;DHT22;13725;51.170;4.442;2023-04-03T01:50:32;2.90;99.90
25923;DHT22;13725;51.170;4.442;2023-04-03T01:52:58;2.80;99.90
25923;DHT22;13725;51.170;4.442;2023-04-03T01:55:24;2.80;99.90
25923;DHT22;13725;51.170;4.442;2023-04-03T01:57:49;2.80;99.90
25923;DHT22;13725;51.170;4.442;2023-04-03T02:00:15;2.80;99.90
25923;DHT22;13725;51.170;4.442;2023-04-03T02:02:42;2.80;99.90
25923;DHT22;13725;51.170;4.442;2023-04-03T02:05:07;2.80;99.90
25923;DHT22;13725;51.170;4.442;2023-04-03T02:07:33;2.80;99.90
25923;DHT22;13725;51.170;4.442;2023-04-03T02:09:59;2.70;99.90
25923;DHT22;13725;51.170;4.442;2023-04-03T02:12:25;2.70;99.90
25923;DHT22;13725;51.170;4.442;2023-04-03T02:14:50;2.70;99.90
25923;DHT22;13725;51.170;4.442;2023-04-03T02:17:16;2.70;99.90
25923;DHT22;13725;51.170;4.442;2023-04-03T02:19:42;2.70;99.90
25923;DHT22;13725;51.170;4.442;2023-04-03T02:22:07;2.60;99.90
25923;DHT22;13725;51.170;4.442;2023-04-03T02:24:33;2.60;99.90
25923;DHT22;13725;51.170;4.442;2023-04-03T02:26:58;2.60;99.90
25923;DHT22;13725;51.170;4.442;2023-04-03T02:29:24;2.60;99.90
25923;DHT22;13725;51.170;4.442;2023-04-03T02:31:50;2.60;99.90
25923;DHT22;13725;51.170;4.442;2023-04-03T02:34:17;2.60;99.90
25923;DHT22;13725;51.170;4.442;2023-04-03T02:36:44;2.60;99.90
25923;DHT22;13725;51.170;4.442;2023-04-03T02:39:11;2.60;99.90
25923;DHT22;13725;51.170;4.442;2023-04-03T02:41:36;2.50;99.90
25923;DHT22;13725;51.170;4.442;2023-04-03T02:44:09;2.50;99.90
25923;DHT22;13725;51.170;4.442;2023-04-03T02:46:34;2.50;99.90
25923;DHT22;13725;51.170;4.442;2023-04-03T02:49:02;2.50;99.90
25923;DHT22;13725;51.170;4.442;2023-04-03T02:51:28;2.50;99.90
25923;DHT22;13725;51.170;4.442;2023-04-03T02:53:53;2.50;99.90
25923;DHT22;13725;51.170;4.442;2023-04-03T02:56:23;2.50;99.90
25923;DHT22;13725;51.170;4.442;2023-04-03T02:58:48;2.50;99.90
25923;DHT22;13725;51.170;4.442;2023-04-03T03:01:15;2.50;99.90
25923;DHT22;13725;51.170;4.442;2023-04-03T03:03:41;2.40;99.90
25923;DHT22;13725;51.170;4.442;2023-04-03T03:06:13;2.40;99.90
25923;DHT22;13725;51.170;4.442;2023-04-03T03:08:39;2.40;99.90
25923;DHT22;13725;51.170;4.442;2023-04-03T03:11:05;2.40;99.90
25923;DHT22;13725;51.170;4.442;2023-04-03T03:13:32;2.40;99.90
25923;DHT22;13725;51.170;4.442;2023-04-03T03:15:58;2.40;99.90
25923;DHT22;13725;51.170;4.442;2023-04-03T03:18:24;2.40;99.90
25923;DHT22;13725;51.170;4.442;2023-04-03T03:20:54;2.40;99.90
25923;DHT22;13725;51.170;4.442;2023-04-03T03:23:21;2.30;99.90
25923;DHT22;13725;51.170;4.442;2023-04-03T03:25:47;2.30;99.90
25923;DHT22;13725;51.170;4.442;2023-04-03T03:28:12;2.30;99.90
25923;DHT22;13725;51.170;4.442;2023-04-03T03:30:38;2.30;99.90
25923;DHT22;13725;51.170;4.442;2023-04-03T03:33:04;2.30;99.90
25923;DHT22;13725;51.170;4.442;2023-04-03T03:35:30;2.20;99.90
25923;DHT22;13725;51.170;4.442;2023-04-03T03:37:55;2.20;99.90
25923;DHT22;13725;51.170;4.442;2023-04-03T03:40:22;2.20;99.90
25923;DHT22;13725;51.170;4.442;2023-04-03T03:42:47;2.30;99.90
25923;DHT22;13725;51.170;4.442;2023-04-03T03:45:13;2.30;99.90
25923;DHT22;13725;51.170;4.442;2023-04-03T03:47:40;2.20;99.90
25923;DHT22;13725;51.170;4.442;2023-04-03T03:50:06;2.20;99.90
25923;DHT22;13725;51.170;4.442;2023-04-03T03:52:32;2.20;99.90
25923;DHT22;13725;51.170;4.442;2023-04-03T03:54:58;2.20;99.90
25923;DHT22;13725;51.170;4.442;2023-04-03T03:57:24;2.20;99.90
25923;DHT22;13725;51.170;4.442;2023-04-03T03:59:52;2.20;99.90
25923;DHT22;13725;51.170;4.442;2023-04-03T04:02:18;2.20;99.90
25923;DHT22;13725;51.170;4.442;2023-04-03T04:04:44;2.20;99.90
25923;DHT22;13725;51.170;4.442;2023-04-03T04:07:10;2.20;99.90
25923;DHT22;13725;51.170;4.442;2023-04-03T04:09:35;2.20;99.90
25923;DHT22;13725;51.170;4.442;2023-04-03T04:12:01;2.20;99.90
25923;DHT22;13725;51.170;4.442;2023-04-03T04:14:29;2.20;99.90
25923;DHT22;13725;51.170;4.442;2023-04-03T04:16:55;2.10;99.90
25923;DHT22;13725;51.170;4.442;2023-04-03T04:19:24;2.10;99.90
25923;DHT22;13725;51.170;4.442;2023-04-03T04:21:50;2.10;99.90
25923;DHT22;13725;51.170;4.442;2023-04-03T04:24:16;2.10;99.90
25923;DHT22;13725;51.170;4.442;2023-04-03T04:26:42;2.10;99.90
25923;DHT22;13725;51.170;4.442;2023-04-03T04:29:11;2.10;99.90
25923;DHT22;13725;51.170;4.442;2023-04-03T04:31:37;2.10;99.90
25923;DHT22;13725;51.170;4.442;2023-04-03T04:34:03;2.10;99.90
25923;DHT22;13725;51.170;4.442;2023-04-03T04:36:28;2.10;99.90
25923;DHT22;13725;51.170;4.442;2023-04-03T04:38:54;2.00;99.90
25923;DHT22;13725;51.170;4.442;2023-04-03T04:41:22;2.00;99.90
25923;DHT22;13725;51.170;4.442;2023-04-03T04:43:50;2.00;99.90
25923;DHT22;13725;51.170;4.442;2023-04-03T04:46:16;2.00;99.90
25923;DHT22;13725;51.170;4.442;2023-04-03T04:48:47;2.00;99.90
25923;DHT22;13725;51.170;4.442;2023-04-03T04:51:15;2.00;99.90
25923;DHT22;13725;51.170;4.442;2023-04-03T04:53:41;2.00;99.90
25923;DHT22;13725;51.170;4.442;2023-04-03T04:56:08;2.00;99.90
25923;DHT22;13725;51.170;4.442;2023-04-03T04:58:36;2.00;99.90
25923;DHT22;13725;51.170;4.442;2023-04-03T05:01:07;1.90;99.90
25923;DHT22;13725;51.170;4.442;2023-04-03T05:03:37;1.90;99.90
25923;DHT22;13725;51.170;4.442;2023-04-03T05:06:03;1.90;99.90
25923;DHT22;13725;51.170;4.442;2023-04-03T05:08:30;1.90;99.90
25923;DHT22;13725;51.170;4.442;2023-04-03T05:10:57;1.90;99.90
25923;DHT22;13725;51.170;4.442;2023-04-03T05:13:24;1.90;99.90
25923;DHT22;13725;51.170;4.442;2023-04-03T05:15:50;1.90;99.90
25923;DHT22;13725;51.170;4.442;2023-04-03T05:18:16;2.00;99.90
25923;DHT22;13725;51.170;4.442;2023-04-03T05:20:42;2.00;99.90
25923;DHT22;13725;51.170;4.442;2023-04-03T05:23:10;2.00;99.90
25923;DHT22;13725;51.170;4.442;2023-04-03T05:25:38;2.00;99.90
25923;DHT22;13725;51.170;4.442;2023-04-03T05:28:05;2.00;99.90
25923;DHT22;13725;51.170;4.442;2023-04-03T05:30:31;2.10;99.90
25923;DHT22;13725;51.170;4.442;2023-04-03T05:32:57;2.10;99.90
25923;DHT22;13725;51.170;4.442;2023-04-03T05:35:38;2.10;99.90
25923;DHT22;13725;51.170;4.442;2023-04-03T05:38:06;2.10;99.90
25923;DHT22;13725;51.170;4.442;2023-04-03T05:40:32;2.10;99.90
25923;DHT22;13725;51.170;4.442;2023-04-03T05:42:58;2.10;99.90
25923;DHT22;13725;51.170;4.442;2023-04-03T05:45:25;2.20;99.90
25923;DHT22;13725;51.170;4.442;2023-04-03T05:47:51;2.20;99.90
25923;DHT22;13725;51.170;4.442;2023-04-03T05:50:17;2.20;99.90
25923;DHT22;13725;51.170;4.442;2023-04-03T05:52:45;2.30;99.90
25923;DHT22;13725;51.170;4.442;2023-04-03T05:55:14;2.40;99.90
25923;DHT22;13725;51.170;4.442;2023-04-03T05:57:40;2.50;99.90
25923;DHT22;13725;51.170;4.442;2023-04-03T06:00:07;2.70;99.90
25923;DHT22;13725;51.170;4.442;2023-04-03T06:02:39;3.20;99.90
25923;DHT22;13725;51.170;4.442;2023-04-03T06:05:07;3.70;99.90
25923;DHT22;13725;51.170;4.442;2023-04-03T06:07:34;4.30;99.90
25923;DHT22;13725;51.170;4.442;2023-04-03T06:10:00;4.90;99.90
25923;DHT22;13725;51.170;4.442;2023-04-03T06:12:27;5.50;99.90
25923;DHT22;13725;51.170;4.442;2023-04-03T06:14:55;6.00;99.90
25923;DHT22;13725;51.170;4.442;2023-04-03T06:17:21;6.70;99.90
25923;DHT22;13725;51.170;4.442;2023-04-03T06:19:47;7.10;99.90
25923;DHT22;13725;51.170;4.442;2023-04-03T06:22:13;7.90;99.90
25923;DHT22;13725;51.170;4.442;2023-04-03T06:24:39;8.80;99.90
25923;DHT22;13725;51.170;4.442;2023-04-03T06:27:04;9.50;99.90
25923;DHT22;13725;51.170;4.442;2023-04-03T06:29:30;10.00;99.90
25923;DHT22;13725;51.170;4.442;2023-04-03T06:31:56;10.70;99.90
25923;DHT22;13725;51.170;4.442;2023-04-03T06:34:22;11.30;99.90
25923;DHT22;13725;51.170;4.442;2023-04-03T06:36:48;11.80;99.90
25923;DHT22;13725;51.170;4.442;2023-04-03T06:39:18;12.30;99.90
25923;DHT22;13725;51.170;4.442;2023-04-03T06:41:46;11.90;99.90
25923;DHT22;13725;51.170;4.442;2023-04-03T06:44:11;12.40;99.90
25923;DHT22;13725;51.170;4.442;2023-04-03T06:46:38;12.50;99.90
25923;DHT22;13725;51.170;4.442;2023-04-03T06:49:05;13.20;99.90
25923;DHT22;13725;51.170;4.442;2023-04-03T06:51:33;13.00;99.90
25923;DHT22;13725;51.170;4.442;2023-04-03T06:53:59;13.10;99.90
25923;DHT22;13725;51.170;4.442;2023-04-03T06:56:26;12.80;99.90
25923;DHT22;13725;51.170;4.442;2023-04-03T06:58:53;12.20;99.90
25923;DHT22;13725;51.170;4.442;2023-04-03T07:01:20;12.70;99.90
25923;DHT22;13725;51.170;4.442;2023-04-03T07:03:47;13.70;99.90
25923;DHT22;13725;51.170;4.442;2023-04-03T07:06:14;14.20;99.90
25923;DHT22;13725;51.170;4.442;2023-04-03T07:08:41;14.40;99.90
25923;DHT22;13725;51.170;4.442;2023-04-03T07:11:08;14.50;99.90
25923;DHT22;13725;51.170;4.442;2023-04-03T07:13:34;14.50;99.90
25923;DHT22;13725;51.170;4.442;2023-04-03T07:16:00;14.20;99.90
25923;DHT22;13725;51.170;4.442;2023-04-03T07:18:25;14.10;99.90
25923;DHT22;13725;51.170;4.442;2023-04-03T07:20:52;15.00;99.90
25923;DHT22;13725;51.170;4.442;2023-04-03T07:23:18;16.10;99.90
25923;DHT22;13725;51.170;4.442;2023-04-03T07:25:45;15.10;99.90
25923;DHT22;13725;51.170;4.442;2023-04-03T07:28:12;14.90;99.90
25923;DHT22;13725;51.170;4.442;2023-04-03T07:31:11;15.70;99.90
25923;DHT22;13725;51.170;4.442;2023-04-03T07:33:36;16.30;99.90
25923;DHT22;13725;51.170;4.442;2023-04-03T07:36:03;16.10;99.90
25923;DHT22;13725;51.170;4.442;2023-04-03T07:38:29;15.50;99.90
25923;DHT22;13725;51.170;4.442;2023-04-03T07:40:54;15.50;99.90
25923;DHT22;13725;51.170;4.442;2023-04-03T07:43:21;16.20;99.90
25923;DHT22;13725;51.170;4.442;2023-04-03T07:45:48;17.00;99.90
25923;DHT22;13725;51.170;4.442;2023-04-03T07:48:19;17.60;99.60
25923;DHT22;13725;51.170;4.442;2023-04-03T07:50:45;17.50;98.40
25923;DHT22;13725;51.170;4.442;2023-04-03T07:53:10;17.00;96.40
25923;DHT22;13725;51.170;4.442;2023-04-03T07:55:37;16.30;97.80
25923;DHT22;13725;51.170;4.442;2023-04-03T07:58:13;16.30;98.10
25923;DHT22;13725;51.170;4.442;2023-04-03T08:00:39;16.50;98.10
25923;DHT22;13725;51.170;4.442;2023-04-03T08:03:06;17.00;96.70
25923;DHT22;13725;51.170;4.442;2023-04-03T08:05:42;17.90;95.80
25923;DHT22;13725;51.170;4.442;2023-04-03T08:08:10;18.10;93.50
25923;DHT22;13725;51.170;4.442;2023-04-03T08:10:36;17.20;93.50
25923;DHT22;13725;51.170;4.442;2023-04-03T08:13:02;16.20;95.00
25923;DHT22;13725;51.170;4.442;2023-04-03T08:15:30;17.10;94.60
25923;DHT22;13725;51.170;4.442;2023-04-03T08:17:56;17.00;93.60
25923;DHT22;13725;51.170;4.442;2023-04-03T08:20:21;16.50;94.90
25923;DHT22;13725;51.170;4.442;2023-04-03T08:22:47;16.00;95.20
25923;DHT22;13725;51.170;4.442;2023-04-03T08:25:13;16.40;95.30
25923;DHT22;13725;51.170;4.442;2023-04-03T08:27:39;17.50;95.40
25923;DHT22;13725;51.170;4.442;2023-04-03T08:30:05;18.90;93.50
25923;DHT22;13725;51.170;4.442;2023-04-03T08:32:33;20.20;90.60
25923;DHT22;13725;51.170;4.442;2023-04-03T08:35:00;20.80;87.40
25923;DHT22;13725;51.170;4.442;2023-04-03T08:37:25;20.10;83.60
25923;DHT22;13725;51.170;4.442;2023-04-03T08:39:52;19.30;86.00
25923;DHT22;13725;51.170;4.442;2023-04-03T08:45:25;20.90;83.40
25923;DHT22;13725;51.170;4.442;2023-04-03T08:47:53;21.30;80.30
25923;DHT22;13725;51.170;4.442;2023-04-03T08:50:29;20.80;79.30
25923;DHT22;13725;51.170;4.442;2023-04-03T08:52:57;20.80;78.00
25923;DHT22;13725;51.170;4.442;2023-04-03T08:55:24;20.40;76.50
25923;DHT22;13725;51.170;4.442;2023-04-03T08:58:01;19.10;77.80
25923;DHT22;13725;51.170;4.442;2023-04-03T09:00:45;18.60;80.30
25923;DHT22;13725;51.170;4.442;2023-04-03T09:03:16;19.10;80.70
25923;DHT22;13725;51.170;4.442;2023-04-03T09:08:31;20.80;76.90
25923;DHT22;13725;51.170;4.442;2023-04-03T09:21:41;19.20;75.00
25923;DHT22;13725;51.170;4.442;2023-04-03T09:24:10;18.50;78.10
25923;DHT22;13725;51.170;4.442;2023-04-03T09:26:42;19.20;78.20
25923;DHT22;13725;51.170;4.442;2023-04-03T09:29:10;20.80;75.50
25923;DHT22;13725;51.170;4.442;2023-04-03T09:31:40;21.20;73.30
25923;DHT22;13725;51.170;4.442;2023-04-03T09:34:28;21.70;70.70
25923;DHT22;13725;51.170;4.442;2023-04-03T09:36:58;21.60;70.80
25923;DHT22;13725;51.170;4.442;2023-04-03T09:39:27;20.90;69.40
25923;DHT22;13725;51.170;4.442;2023-04-03T09:41:59;21.30;70.40
25923;DHT22;13725;51.170;4.442;2023-04-03T09:44:34;20.70;70.00
25923;DHT22;13725;51.170;4.442;2023-04-03T09:47:18;20.70;71.00
25923;DHT22;13725;51.170;4.442;2023-04-03T09:49:44;21.50;70.30
25923;DHT22;13725;51.170;4.442;2023-04-03T09:52:49;20.20;69.90
25923;DHT22;13725;51.170;4.442;2023-04-03T09:55:25;20.20;72.60
25923;DHT22;13725;51.170;4.442;2023-04-03T09:58:03;21.30;70.50
25923;DHT22;13725;51.170;4.442;2023-04-03T10:00:37;21.30;68.60
25923;DHT22;13725;51.170;4.442;2023-04-03T10:03:05;21.00;69.00
25923;DHT22;13725;51.170;4.442;2023-04-03T10:05:40;21.60;68.80
25923;DHT22;13725;51.170;4.442;2023-04-03T10:08:28;22.50;66.40
25923;DHT22;13725;51.170;4.442;2023-04-03T10:11:17;23.20;66.70
25923;DHT22;13725;51.170;4.442;2023-04-03T10:14:16;22.00;63.60
25923;DHT22;13725;51.170;4.442;2023-04-03T10:24:54;19.50;69.10
25923;DHT22;13725;51.170;4.442;2023-04-03T10:27:53;20.30;66.40
25923;DHT22;13725;51.170;4.442;2023-04-03T10:35:56;20.80;62.70
25923;DHT22;13725;51.170;4.442;2023-04-03T10:38:51;20.40;65.00
25923;DHT22;13725;51.170;4.442;2023-04-03T10:41:23;20.30;62.60
25923;DHT22;13725;51.170;4.442;2023-04-03T10:44:09;20.40;63.10
25923;DHT22;13725;51.170;4.442;2023-04-03T10:46:53;20.30;62.80
25923;DHT22;13725;51.170;4.442;2023-04-03T10:55:01;20.60;63.50
25923;DHT22;13725;51.170;4.442;2023-04-03T10:57:29;20.90;61.30
25923;DHT22;13725;51.170;4.442;2023-04-03T11:00:01;21.00;59.80
25923;DHT22;13725;51.170;4.442;2023-04-03T11:02:33;20.50;60.30
25923;DHT22;13725;51.170;4.442;2023-04-03T11:05:45;20.80;61.40
25923;DHT22;13725;51.170;4.442;2023-04-03T11:11:33;21.20;59.50
25923;DHT22;13725;51.170;4.442;2023-04-03T11:14:26;20.90;62.10
25923;DHT22;13725;51.170;4.442;2023-04-03T11:17:09;21.00;61.00
25923;DHT22;13725;51.170;4.442;2023-04-03T11:19:41;21.80;59.40
25923;DHT22;13725;51.170;4.442;2023-04-03T11:25:04;20.60;59.50
25923;DHT22;13725;51.170;4.442;2023-04-03T11:27:43;20.90;60.50
25923;DHT22;13725;51.170;4.442;2023-04-03T11:30:18;21.10;59.60
25923;DHT22;13725;51.170;4.442;2023-04-03T11:32:53;21.20;58.30
25923;DHT22;13725;51.170;4.442;2023-04-03T11:35:23;20.80;56.40
25923;DHT22;13725;51.170;4.442;2023-04-03T11:37:53;20.00;57.00
25923;DHT22;13725;51.170;4.442;2023-04-03T11:40:26;19.70;57.40
25923;DHT22;13725;51.170;4.442;2023-04-03T11:43:21;20.00;57.60
25923;DHT22;13725;51.170;4.442;2023-04-03T11:46:07;20.10;56.20
25923;DHT22;13725;51.170;4.442;2023-04-03T11:51:46;20.90;55.40
25923;DHT22;13725;51.170;4.442;2023-04-03T11:53:48;20.80;54.40
25923;DHT22;13725;51.170;4.442;2023-04-03T12:01:48;21.60;53.40
25923;DHT22;13725;51.170;4.442;2023-04-03T12:04:16;21.40;53.40
25923;DHT22;13725;51.170;4.442;2023-04-03T12:06:51;21.50;52.30
25923;DHT22;13725;51.170;4.442;2023-04-03T12:12:54;21.40;53.00
25923;DHT22;13725;51.170;4.442;2023-04-03T12:17:44;19.10;52.40
25923;DHT22;13725;51.170;4.442;2023-04-03T12:20:46;18.70;52.50
25923;DHT22;13725;51.170;4.442;2023-04-03T12:23:26;19.40;56.10
25923;DHT22;13725;51.170;4.442;2023-04-03T12:26:03;19.00;54.20
25923;DHT22;13725;51.170;4.442;2023-04-03T12:28:36;18.90;56.70
25923;DHT22;13725;51.170;4.442;2023-04-03T12:31:04;19.50;52.60
25923;DHT22;13725;51.170;4.442;2023-04-03T12:36:43;19.60;54.60
25923;DHT22;13725;51.170;4.442;2023-04-03T12:42:15;19.30;54.70
25923;DHT22;13725;51.170;4.442;2023-04-03T12:47:32;19.20;54.90
25923;DHT22;13725;51.170;4.442;2023-04-03T12:49:59;19.10;53.70
25923;DHT22;13725;51.170;4.442;2023-04-03T12:52:37;18.70;55.70
25923;DHT22;13725;51.170;4.442;2023-04-03T12:55:13;18.80;55.70
25923;DHT22;13725;51.170;4.442;2023-04-03T12:57:40;19.70;55.70
25923;DHT22;13725;51.170;4.442;2023-04-03T13:02:55;20.30;54.70
25923;DHT22;13725;51.170;4.442;2023-04-03T13:05:21;19.30;55.50
25923;DHT22;13725;51.170;4.442;2023-04-03T13:08:00;19.40;55.30
25923;DHT22;13725;51.170;4.442;2023-04-03T13:10:27;19.00;55.40
25923;DHT22;13725;51.170;4.442;2023-04-03T13:12:56;18.60;55.70
25923;DHT22;13725;51.170;4.442;2023-04-03T13:15:30;18.70;56.50
25923;DHT22;13725;51.170;4.442;2023-04-03T13:18:05;19.30;55.80
25923;DHT22;13725;51.170;4.442;2023-04-03T13:20:47;19.40;56.20
25923;DHT22;13725;51.170;4.442;2023-04-03T13:23:17;19.10;55.20
25923;DHT22;13725;51.170;4.442;2023-04-03T13:25:44;19.30;57.80
25923;DHT22;13725;51.170;4.442;2023-04-03T13:28:15;19.00;56.80
25923;DHT22;13725;51.170;4.442;2023-04-03T13:33:32;18.20;55.50
25923;DHT22;13725;51.170;4.442;2023-04-03T13:36:16;18.50;59.50
25923;DHT22;13725;51.170;4.442;2023-04-03T13:38:43;18.50;56.30
25923;DHT22;13725;51.170;4.442;2023-04-03T13:41:25;18.20;58.70
25923;DHT22;13725;51.170;4.442;2023-04-03T13:43:52;18.20;59.80
25923;DHT22;13725;51.170;4.442;2023-04-03T13:48:50;18.50;59.50
25923;DHT22;13725;51.170;4.442;2023-04-03T13:51:20;19.00;59.10
25923;DHT22;13725;51.170;4.442;2023-04-03T13:56:36;18.60;56.40
25923;DHT22;13725;51.170;4.442;2023-04-03T14:02:14;18.30;57.80
25923;DHT22;13725;51.170;4.442;2023-04-03T14:07:06;17.70;58.10
25923;DHT22;13725;51.170;4.442;2023-04-03T14:09:31;17.80;58.70
25923;DHT22;13725;51.170;4.442;2023-04-03T14:12:07;17.80;57.20
25923;DHT22;13725;51.170;4.442;2023-04-03T14:14:35;18.10;59.10
25923;DHT22;13725;51.170;4.442;2023-04-03T14:17:20;18.20;59.30
25923;DHT22;13725;51.170;4.442;2023-04-03T14:19:47;17.60;58.00
25923;DHT22;13725;51.170;4.442;2023-04-03T14:22:25;16.80;57.40
25923;DHT22;13725;51.170;4.442;2023-04-03T14:24:52;16.30;59.60
25923;DHT22;13725;51.170;4.442;2023-04-03T14:27:19;15.90;60.20
25923;DHT22;13725;51.170;4.442;2023-04-03T14:29:47;15.50;61.20
25923;DHT22;13725;51.170;4.442;2023-04-03T14:32:19;14.80;60.40
25923;DHT22;13725;51.170;4.442;2023-04-03T14:34:45;14.30;61.70
25923;DHT22;13725;51.170;4.442;2023-04-03T14:37:18;13.90;63.50
25923;DHT22;13725;51.170;4.442;2023-04-03T14:39:45;13.90;63.80
25923;DHT22;13725;51.170;4.442;2023-04-03T14:42:17;13.80;64.30
25923;DHT22;13725;51.170;4.442;2023-04-03T14:44:43;13.70;64.20
25923;DHT22;13725;51.170;4.442;2023-04-03T14:47:16;13.50;62.40
25923;DHT22;13725;51.170;4.442;2023-04-03T14:49:42;13.30;63.70
25923;DHT22;13725;51.170;4.442;2023-04-03T14:52:28;13.10;64.50
25923;DHT22;13725;51.170;4.442;2023-04-03T14:54:55;13.20;65.00
25923;DHT22;13725;51.170;4.442;2023-04-03T14:57:24;13.00;65.30
25923;DHT22;13725;51.170;4.442;2023-04-03T14:59:51;13.10;64.80
25923;DHT22;13725;51.170;4.442;2023-04-03T15:02:26;13.20;65.70
25923;DHT22;13725;51.170;4.442;2023-04-03T15:04:57;13.00;66.60
25923;DHT22;13725;51.170;4.442;2023-04-03T15:07:24;12.90;65.70
25923;DHT22;13725;51.170;4.442;2023-04-03T15:09:51;12.80;65.30
25923;DHT22;13725;51.170;4.442;2023-04-03T15:12:18;12.70;65.20
25923;DHT22;13725;51.170;4.442;2023-04-03T15:14:44;12.70;65.70
25923;DHT22;13725;51.170;4.442;2023-04-03T15:17:19;12.60;63.20
25923;DHT22;13725;51.170;4.442;2023-04-03T15:19:45;12.50;63.50
25923;DHT22;13725;51.170;4.442;2023-04-03T15:22:16;12.40;64.30
25923;DHT22;13725;51.170;4.442;2023-04-03T15:24:43;12.40;65.30
25923;DHT22;13725;51.170;4.442;2023-04-03T15:27:10;12.30;64.60
25923;DHT22;13725;51.170;4.442;2023-04-03T15:29:38;12.20;64.60
25923;DHT22;13725;51.170;4.442;2023-04-03T15:32:04;12.10;64.60
25923;DHT22;13725;51.170;4.442;2023-04-03T15:34:30;12.00;65.40
25923;DHT22;13725;51.170;4.442;2023-04-03T15:36:56;11.90;66.10
25923;DHT22;13725;51.170;4.442;2023-04-03T15:39:22;12.00;65.80
25923;DHT22;13725;51.170;4.442;2023-04-03T15:41:49;12.10;65.90
25923;DHT22;13725;51.170;4.442;2023-04-03T15:44:17;12.00;66.10
25923;DHT22;13725;51.170;4.442;2023-04-03T15:46:44;11.90;67.10
25923;DHT22;13725;51.170;4.442;2023-04-03T15:49:12;11.90;68.50
25923;DHT22;13725;51.170;4.442;2023-04-03T15:51:38;11.90;68.30
25923;DHT22;13725;51.170;4.442;2023-04-03T15:54:05;11.80;68.30
25923;DHT22;13725;51.170;4.442;2023-04-03T15:56:30;11.80;69.20
25923;DHT22;13725;51.170;4.442;2023-04-03T15:58:56;11.90;68.10
25923;DHT22;13725;51.170;4.442;2023-04-03T16:01:23;11.80;68.20
25923;DHT22;13725;51.170;4.442;2023-04-03T16:03:48;11.80;70.00
25923;DHT22;13725;51.170;4.442;2023-04-03T16:06:15;11.70;69.10
25923;DHT22;13725;51.170;4.442;2023-04-03T16:08:42;11.60;68.70
25923;DHT22;13725;51.170;4.442;2023-04-03T16:11:08;11.60;69.00
25923;DHT22;13725;51.170;4.442;2023-04-03T16:13:34;11.60;69.70
25923;DHT22;13725;51.170;4.442;2023-04-03T16:16:01;11.60;70.00
25923;DHT22;13725;51.170;4.442;2023-04-03T16:18:28;11.60;70.00
25923;DHT22;13725;51.170;4.442;2023-04-03T16:20:54;11.50;70.00
25923;DHT22;13725;51.170;4.442;2023-04-03T16:23:20;11.50;70.50
25923;DHT22;13725;51.170;4.442;2023-04-03T16:25:47;11.50;72.00
25923;DHT22;13725;51.170;4.442;2023-04-03T16:28:14;11.50;71.40
25923;DHT22;13725;51.170;4.442;2023-04-03T16:30:41;11.40;71.00
25923;DHT22;13725;51.170;4.442;2023-04-03T16:33:07;11.40;72.70
25923;DHT22;13725;51.170;4.442;2023-04-03T16:35:34;11.30;72.30
25923;DHT22;13725;51.170;4.442;2023-04-03T16:37:59;11.20;72.40
25923;DHT22;13725;51.170;4.442;2023-04-03T16:40:25;11.20;74.00
25923;DHT22;13725;51.170;4.442;2023-04-03T16:42:51;11.10;73.70
25923;DHT22;13725;51.170;4.442;2023-04-03T16:45:17;11.00;74.30
25923;DHT22;13725;51.170;4.442;2023-04-03T16:47:42;11.00;75.10
25923;DHT22;13725;51.170;4.442;2023-04-03T16:50:09;11.00;74.70
25923;DHT22;13725;51.170;4.442;2023-04-03T16:52:35;10.90;76.00
25923;DHT22;13725;51.170;4.442;2023-04-03T16:55:01;10.80;75.80
25923;DHT22;13725;51.170;4.442;2023-04-03T16:57:26;10.90;76.30
25923;DHT22;13725;51.170;4.442;2023-04-03T16:59:52;10.80;76.70
25923;DHT22;13725;51.170;4.442;2023-04-03T17:02:20;10.80;76.10
25923;DHT22;13725;51.170;4.442;2023-04-03T17:04:46;10.70;76.10
25923;DHT22;13725;51.170;4.442;2023-04-03T17:07:11;10.60;75.40
25923;DHT22;13725;51.170;4.442;2023-04-03T17:09:37;10.60;76.40
25923;DHT22;13725;51.170;4.442;2023-04-03T17:12:04;10.50;76.70
25923;DHT22;13725;51.170;4.442;2023-04-03T17:14:30;10.40;77.60
25923;DHT22;13725;51.170;4.442;2023-04-03T17:16:56;10.30;77.80
25923;DHT22;13725;51.170;4.442;2023-04-03T17:19:21;10.20;78.30